Time;durP1;ratioP1;P1;durP2;ratioP2;P2;SDS_P1;SDS_P2;PMS_P1;PMS_P2;Temp;Humidity;BMP_temperature;BMP_pressure;BME280_temperature;BME280_humidity;BME280_pressure;Samples;Min_cycle;Max_cycle;Signal;HPM_P1;HPM_P2
2021/05/15 00:01:42;;;;;;;22.07;13.33;;;10.50;99.90;;;;;;5095857;28;20194;-78
2021/05/15 00:04:09;;;;;;;22.03;13.77;;;10.60;99.90;;;;;;5095825;28;20256;-79
2021/05/15 00:06:35;;;;;;;25.30;13.87;;;10.50;99.90;;;;;;5095360;28;20557;-78
2021/05/15 00:09:03;;;;;;;20.53;13.37;;;10.20;99.90;;;;;;5095780;28;20197;-78
2021/05/15 00:11:29;;;;;;;25.73;13.03;;;10.20;99.90;;;;;;5095239;28;20288;-79
2021/05/15 00:13:55;;;;;;;26.83;13.37;;;10.10;99.90;;;;;;5095372;28;20243;-78
2021/05/15 00:16:22;;;;;;;22.10;13.83;;;10.00;99.90;;;;;;5095729;28;20603;-79
2021/05/15 00:18:48;;;;;;;24.73;13.33;;;10.20;99.90;;;;;;5095635;28;20185;-80
2021/05/15 00:21:15;;;;;;;28.77;13.87;;;10.30;99.90;;;;;;5095554;28;20588;-79
2021/05/15 00:23:42;;;;;;;28.00;14.23;;;10.20;99.90;;;;;;5095448;28;20242;-79
2021/05/15 00:26:09;;;;;;;21.70;13.67;;;10.40;99.90;;;;;;5094715;28;20212;-79
2021/05/15 00:28:36;;;;;;;31.93;15.40;;;10.50;99.90;;;;;;5094842;28;20579;-79
2021/05/15 00:31:02;;;;;;;26.33;14.10;;;10.60;99.90;;;;;;5095044;28;20560;-78
2021/05/15 00:33:29;;;;;;;28.53;15.47;;;10.70;99.90;;;;;;5095096;28;20294;-79
2021/05/15 00:35:55;;;;;;;27.97;13.97;;;10.70;99.90;;;;;;5095161;28;20293;-80
2021/05/15 00:38:22;;;;;;;24.47;14.53;;;10.80;99.90;;;;;;5095722;28;20296;-79
2021/05/15 00:40:49;;;;;;;32.10;15.67;;;10.80;99.90;;;;;;5095397;28;20365;-80
2021/05/15 00:43:15;;;;;;;28.90;14.27;;;10.90;99.90;;;;;;5095615;28;20248;-80
2021/05/15 00:45:41;;;;;;;25.20;14.37;;;11.00;99.90;;;;;;5094935;28;20292;-79
2021/05/15 00:48:08;;;;;;;26.50;14.13;;;11.10;99.90;;;;;;5095925;28;20214;-79
2021/05/15 00:50:35;;;;;;;28.43;15.27;;;11.00;99.90;;;;;;5095566;28;20725;-80
2021/05/15 00:53:04;;;;;;;27.70;15.37;;;11.00;99.90;;;;;;5095360;28;20198;-81
2021/05/15 00:55:32;;;;;;;25.07;14.67;;;10.90;99.90;;;;;;5095200;28;20208;-79
2021/05/15 00:57:59;;;;;;;26.73;14.90;;;10.90;99.90;;;;;;5095453;28;20205;-80
2021/05/15 01:00:25;;;;;;;26.03;14.30;;;10.90;99.90;;;;;;5095394;28;20212;-82
2021/05/15 01:02:52;;;;;;;27.60;15.87;;;11.00;99.90;;;;;;5095197;28;20194;-82
2021/05/15 01:05:19;;;;;;;31.13;15.70;;;10.90;99.90;;;;;;5095059;28;20198;-80
2021/05/15 01:07:46;;;;;;;28.40;15.20;;;10.70;99.90;;;;;;5095018;28;20200;-83
2021/05/15 01:10:13;;;;;;;32.57;16.57;;;10.70;99.90;;;;;;5095313;28;20201;-79
2021/05/15 01:12:51;;;;;;;30.87;15.93;;;10.80;99.90;;;;;;5094693;28;20202;-79
2021/05/15 01:15:18;;;;;;;28.53;15.77;;;10.90;99.90;;;;;;5094909;28;20289;-80
2021/05/15 01:17:51;;;;;;;36.13;16.37;;;10.80;99.90;;;;;;5094860;28;20726;-80
2021/05/15 01:20:19;;;;;;;29.00;15.73;;;10.70;99.90;;;;;;5094927;28;20291;-82
2021/05/15 01:22:46;;;;;;;33.63;16.73;;;10.70;99.90;;;;;;5094914;28;20218;-83
2021/05/15 01:25:13;;;;;;;33.87;16.43;;;10.60;99.90;;;;;;5094855;28;20288;-81
2021/05/15 01:27:40;;;;;;;26.63;14.80;;;10.60;99.90;;;;;;5095164;28;20727;-80
2021/05/15 01:30:09;;;;;;;29.47;16.20;;;10.50;99.90;;;;;;5094623;28;20225;-83
2021/05/15 01:32:38;;;;;;;30.87;16.10;;;10.50;99.90;;;;;;5094253;28;20202;-83
2021/05/15 01:35:06;;;;;;;36.00;17.40;;;10.50;99.90;;;;;;5094158;28;20237;-83
2021/05/15 01:37:32;;;;;;;38.60;17.03;;;10.50;99.90;;;;;;5094362;28;20726;-79
2021/05/15 01:39:59;;;;;;;35.80;17.40;;;10.60;99.90;;;;;;5094167;28;20202;-80
2021/05/15 01:42:25;;;;;;;34.63;16.87;;;10.50;99.90;;;;;;5094825;28;20312;-79
2021/05/15 01:44:52;;;;;;;34.27;17.47;;;10.60;99.90;;;;;;5094984;28;20600;-79
2021/05/15 01:47:18;;;;;;;33.13;17.17;;;10.50;99.90;;;;;;5094974;28;20292;-84
2021/05/15 01:49:47;;;;;;;31.00;16.90;;;10.60;99.90;;;;;;5094798;28;20277;-81
2021/05/15 01:52:13;;;;;;;30.93;16.30;;;10.70;99.90;;;;;;5094531;28;20221;-83
2021/05/15 01:54:40;;;;;;;31.73;17.33;;;10.70;99.90;;;;;;5094655;28;20233;-83
2021/05/15 01:57:07;;;;;;;36.53;16.90;;;10.70;99.90;;;;;;5093946;28;20271;-80
2021/05/15 01:59:34;;;;;;;29.80;15.97;;;10.70;99.90;;;;;;5094617;28;20286;-79
2021/05/15 02:02:00;;;;;;;30.60;16.03;;;10.70;99.90;;;;;;5094305;28;20236;-80
2021/05/15 02:04:27;;;;;;;30.23;17.03;;;10.70;99.90;;;;;;5094349;28;20606;-83
2021/05/15 02:06:55;;;;;;;29.80;15.90;;;10.70;99.90;;;;;;5094401;28;20318;-81
2021/05/15 02:09:21;;;;;;;29.03;15.57;;;10.60;99.90;;;;;;5094237;28;20778;-79
2021/05/15 02:11:48;;;;;;;27.10;15.60;;;10.50;99.90;;;;;;5094567;28;20563;-79
2021/05/15 02:14:15;;;;;;;28.47;16.70;;;10.50;99.90;;;;;;5094308;28;20239;-80
2021/05/15 02:16:41;;;;;;;27.53;15.73;;;10.40;99.90;;;;;;5094066;28;20285;-79
2021/05/15 02:19:08;;;;;;;36.90;17.20;;;10.30;99.90;;;;;;5094668;28;20540;-79
2021/05/15 02:21:34;;;;;;;35.73;16.87;;;10.40;99.90;;;;;;5094042;28;20201;-81
2021/05/15 02:24:01;;;;;;;31.37;17.13;;;10.40;99.90;;;;;;5093990;28;20291;-81
2021/05/15 02:26:27;;;;;;;35.67;17.43;;;10.40;99.90;;;;;;5093911;28;20722;-79
2021/05/15 02:28:54;;;;;;;35.07;17.80;;;10.40;99.90;;;;;;5094032;28;20288;-81
2021/05/15 02:31:21;;;;;;;30.80;17.60;;;10.40;99.90;;;;;;5093890;28;20663;-79
2021/05/15 02:33:47;;;;;;;41.43;18.57;;;10.50;99.90;;;;;;5093920;28;20221;-81
2021/05/15 02:36:14;;;;;;;29.77;17.20;;;10.60;99.90;;;;;;5093713;28;20197;-79
2021/05/15 02:38:40;;;;;;;35.43;18.57;;;10.70;99.90;;;;;;5093892;28;20239;-80
2021/05/15 02:41:07;;;;;;;33.77;16.63;;;10.60;99.90;;;;;;5093895;28;20237;-79
2021/05/15 02:43:33;;;;;;;35.07;18.13;;;10.60;99.90;;;;;;5093921;28;20233;-81
2021/05/15 02:45:59;;;;;;;30.73;17.37;;;10.60;99.90;;;;;;5093846;28;20289;-79
2021/05/15 02:48:27;;;;;;;29.60;17.30;;;10.80;99.90;;;;;;5093569;28;20197;-80
2021/05/15 02:50:53;;;;;;;34.43;16.87;;;10.80;99.90;;;;;;5093876;28;20198;-79
2021/05/15 02:53:20;;;;;;;30.70;15.90;;;10.80;99.90;;;;;;5093685;28;20328;-80
2021/05/15 02:55:46;;;;;;;34.80;17.00;;;10.80;99.90;;;;;;5093517;28;20355;-79
2021/05/15 02:58:16;;;;;;;33.87;17.50;;;10.70;99.90;;;;;;5093648;28;20193;-79
2021/05/15 03:00:42;;;;;;;34.80;15.80;;;10.70;99.90;;;;;;5093365;28;20663;-79
2021/05/15 03:03:09;;;;;;;35.30;16.57;;;10.70;99.90;;;;;;5093339;28;20292;-82
2021/05/15 03:05:37;;;;;;;38.07;17.13;;;10.60;99.90;;;;;;5093750;28;20208;-79
2021/05/15 03:08:03;;;;;;;35.90;17.20;;;10.70;99.90;;;;;;5093335;28;20205;-80
2021/05/15 03:10:30;;;;;;;33.33;16.77;;;10.70;99.90;;;;;;5093677;28;20637;-79
2021/05/15 03:12:57;;;;;;;35.27;16.27;;;10.60;99.90;;;;;;5093443;28;20207;-79
2021/05/15 03:15:24;;;;;;;38.50;17.53;;;10.60;99.90;;;;;;5093395;28;20277;-80
2021/05/15 03:17:52;;;;;;;39.80;19.00;;;10.60;99.90;;;;;;5093212;28;20201;-79
2021/05/15 03:20:20;;;;;;;48.27;21.87;;;10.50;99.90;;;;;;5093513;28;20290;-83
2021/05/15 03:22:48;;;;;;;49.57;24.57;;;10.50;99.90;;;;;;5092882;28;20292;-82
2021/05/15 03:25:15;;;;;;;54.00;24.43;;;10.50;99.90;;;;;;5093377;28;20289;-81
2021/05/15 03:27:42;;;;;;;57.33;24.87;;;10.60;99.90;;;;;;5093150;28;20288;-83
2021/05/15 03:30:10;;;;;;;60.93;25.73;;;10.60;99.90;;;;;;5093150;28;20208;-79
2021/05/15 03:32:38;;;;;;;64.97;25.80;;;10.70;99.90;;;;;;5093353;28;20201;-80
2021/05/15 03:35:06;;;;;;;65.80;27.37;;;10.80;99.90;;;;;;5093331;28;20715;-79
2021/05/15 03:37:32;;;;;;;68.10;27.60;;;10.80;99.90;;;;;;5093397;28;20205;-81
2021/05/15 03:39:59;;;;;;;59.10;28.40;;;10.80;99.90;;;;;;5093128;28;20258;-79
2021/05/15 03:42:26;;;;;;;66.03;28.03;;;10.80;99.90;;;;;;5092984;28;20717;-79
2021/05/15 03:44:52;;;;;;;64.57;28.77;;;11.00;99.90;;;;;;5092996;28;20279;-79
2021/05/15 03:47:19;;;;;;;62.90;28.73;;;11.00;99.90;;;;;;5093289;28;20194;-81
2021/05/15 03:49:45;;;;;;;61.70;27.47;;;11.00;99.90;;;;;;5093291;28;20205;-79
2021/05/15 03:52:11;;;;;;;61.87;29.43;;;11.10;99.90;;;;;;5092991;28;20652;-79
2021/05/15 03:54:38;;;;;;;70.20;30.17;;;11.10;99.90;;;;;;5092936;28;20317;-81
2021/05/15 03:57:06;;;;;;;68.53;28.77;;;11.20;99.90;;;;;;5092867;28;20237;-79
2021/05/15 03:59:32;;;;;;;70.30;29.27;;;11.10;99.90;;;;;;5092828;28;20292;-81
2021/05/15 04:01:58;;;;;;;66.30;28.57;;;11.20;99.90;;;;;;5093188;28;20238;-81
2021/05/15 04:04:25;;;;;;;67.40;29.40;;;11.20;99.90;;;;;;5093061;28;20201;-79
2021/05/15 04:06:51;;;;;;;69.27;30.80;;;11.00;99.90;;;;;;5092914;28;20298;-79
2021/05/15 04:09:17;;;;;;;74.97;31.63;;;10.90;99.90;;;;;;5092943;28;20197;-82
2021/05/15 04:11:44;;;;;;;71.17;32.70;;;11.00;99.90;;;;;;5092833;28;20664;-80
2021/05/15 04:14:23;;;;;;;76.47;32.43;;;11.00;99.90;;;;;;5092948;28;20229;-79
2021/05/15 04:17:02;;;;;;;76.93;34.20;;;10.80;99.90;;;;;;5092821;28;20201;-84
2021/05/15 04:19:29;;;;;;;79.50;34.03;;;10.70;99.90;;;;;;5093084;28;20289;-79
2021/05/15 04:21:56;;;;;;;74.87;33.13;;;10.70;99.90;;;;;;5096310;28;20655;-79
2021/05/15 04:24:25;;;;;;;73.83;34.13;;;10.60;99.90;;;;;;5096359;28;20280;-79
2021/05/15 04:26:52;;;;;;;73.27;32.63;;;10.60;99.90;;;;;;5096468;28;20236;-79
2021/05/15 04:29:19;;;;;;;84.17;36.87;;;10.60;99.90;;;;;;5096351;28;20204;-80
2021/05/15 04:31:46;;;;;;;80.23;35.27;;;10.60;99.90;;;;;;5096088;28;20541;-79
2021/05/15 04:34:12;;;;;;;89.97;38.30;;;10.70;99.90;;;;;;5096085;28;20331;-79
2021/05/15 04:36:39;;;;;;;80.40;39.20;;;10.70;99.90;;;;;;5095777;28;20328;-80
2021/05/15 04:39:06;;;;;;;88.53;39.83;;;10.80;99.90;;;;;;5095992;28;20205;-79
2021/05/15 04:41:32;;;;;;;84.13;39.77;;;10.90;99.90;;;;;;5096357;28;20205;-83
2021/05/15 04:43:59;;;;;;;86.93;37.70;;;11.00;99.90;;;;;;5096000;28;20273;-81
2021/05/15 04:46:26;;;;;;;81.90;38.93;;;11.20;99.90;;;;;;5096332;28;20634;-79
2021/05/15 04:48:52;;;;;;;73.40;38.03;;;11.50;99.90;;;;;;5096051;28;20211;-82
2021/05/15 04:51:19;;;;;;;67.97;37.77;;;11.90;99.90;;;;;;5095798;28;20747;-80
2021/05/15 04:53:45;;;;;;;68.03;37.63;;;12.20;99.90;;;;;;5095654;28;20745;-81
2021/05/15 04:56:11;;;;;;;62.37;36.67;;;12.40;99.90;;;;;;5096321;28;20646;-79
2021/05/15 04:58:38;;;;;;;70.23;39.30;;;12.60;99.90;;;;;;5095593;28;20199;-82
2021/05/15 05:01:04;;;;;;;69.37;39.87;;;12.50;99.90;;;;;;5095837;28;20601;-79
2021/05/15 05:03:31;;;;;;;67.53;38.87;;;12.50;99.90;;;;;;5095772;28;20603;-82
2021/05/15 05:05:58;;;;;;;66.37;39.37;;;12.50;99.90;;;;;;5095608;28;20292;-79
2021/05/15 05:08:25;;;;;;;71.33;39.70;;;12.50;99.90;;;;;;5095386;28;20337;-79
2021/05/15 05:10:51;;;;;;;71.23;39.93;;;12.50;99.90;;;;;;5095276;28;20637;-79
2021/05/15 05:13:18;;;;;;;73.10;39.93;;;12.60;99.90;;;;;;5095512;28;20282;-81
2021/05/15 05:15:44;;;;;;;69.60;39.63;;;12.50;99.90;;;;;;5095548;28;20603;-79
2021/05/15 05:18:11;;;;;;;71.53;40.67;;;12.50;99.90;;;;;;5095370;28;20210;-83
2021/05/15 05:20:38;;;;;;;78.13;41.30;;;12.40;99.90;;;;;;5095113;28;20656;-82
2021/05/15 05:23:04;;;;;;;74.90;40.83;;;12.50;99.90;;;;;;5095428;28;20191;-79
2021/05/15 05:25:31;;;;;;;71.00;40.23;;;12.50;99.90;;;;;;5095345;28;20211;-80
2021/05/15 05:27:58;;;;;;;76.20;41.57;;;12.60;99.90;;;;;;5095444;28;20200;-80
2021/05/15 05:30:24;;;;;;;74.30;42.10;;;12.50;99.90;;;;;;5095257;28;20651;-79
2021/05/15 05:32:51;;;;;;;75.10;40.97;;;12.60;99.90;;;;;;5094953;28;20748;-82
2021/05/15 05:35:19;;;;;;;73.80;42.10;;;12.70;99.90;;;;;;5094776;28;20223;-79
2021/05/15 05:37:48;;;;;;;74.07;41.20;;;12.80;99.90;;;;;;5095072;28;20289;-82
2021/05/15 05:40:15;;;;;;;77.73;42.83;;;12.80;99.90;;;;;;5094914;28;20661;-78
2021/05/15 05:42:42;;;;;;;69.80;40.30;;;12.70;99.90;;;;;;5095010;28;20195;-80
2021/05/15 05:45:11;;;;;;;68.17;37.90;;;12.80;99.90;;;;;;5095022;28;20241;-80
2021/05/15 05:47:37;;;;;;;66.70;40.13;;;12.90;99.90;;;;;;5094951;28;20206;-80
2021/05/15 05:50:05;;;;;;;63.40;36.77;;;13.10;99.90;;;;;;5094828;28;20289;-79
2021/05/15 05:52:31;;;;;;;58.77;35.80;;;13.30;99.90;;;;;;5096090;28;20198;-81
2021/05/15 05:54:58;;;;;;;54.00;34.07;;;13.70;99.90;;;;;;5095155;28;20226;-79
2021/05/15 05:57:25;;;;;;;52.30;32.20;;;13.90;99.90;;;;;;5095178;28;20286;-79
2021/05/15 05:59:51;;;;;;;53.57;32.27;;;14.10;99.90;;;;;;5094785;28;20198;-79
2021/05/15 06:02:17;;;;;;;48.93;31.83;;;14.30;99.90;;;;;;5095229;28;20649;-79
2021/05/15 06:04:44;;;;;;;44.67;30.80;;;14.60;99.90;;;;;;5095815;28;20245;-82
2021/05/15 06:07:12;;;;;;;47.93;31.40;;;14.70;99.90;;;;;;5095376;28;20282;-79
2021/05/15 06:09:38;;;;;;;41.90;29.60;;;15.10;99.90;;;;;;5095625;28;20234;-79
2021/05/15 06:12:06;;;;;;;45.13;29.97;;;15.40;99.90;;;;;;5094691;28;20225;-81
2021/05/15 06:14:34;;;;;;;46.00;30.00;;;15.70;99.90;;;;;;5094889;28;20367;-84
2021/05/15 06:17:00;;;;;;;36.30;26.40;;;16.00;99.90;;;;;;5095028;28;20203;-80
2021/05/15 06:19:26;;;;;;;37.37;26.23;;;16.10;99.90;;;;;;5095219;28;20222;-81
2021/05/15 06:21:53;;;;;;;38.03;25.43;;;15.80;99.90;;;;;;5095274;28;20285;-80
2021/05/15 06:24:19;;;;;;;36.47;22.97;;;15.80;99.90;;;;;;5095672;28;20226;-80
2021/05/15 06:26:46;;;;;;;31.53;21.97;;;15.40;99.90;;;;;;5094892;28;20676;-82
2021/05/15 06:29:13;;;;;;;31.47;21.47;;;15.10;99.90;;;;;;5094611;28;20284;-80
2021/05/15 06:31:39;;;;;;;35.33;20.77;;;15.10;99.90;;;;;;5094259;28;20277;-80
2021/05/15 06:34:08;;;;;;;29.20;19.97;;;15.10;99.90;;;;;;5094249;28;20268;-83
2021/05/15 06:36:35;;;;;;;25.47;19.23;;;15.50;99.90;;;;;;5094314;28;20701;-80
2021/05/15 06:39:01;;;;;;;25.90;18.43;;;16.40;99.90;;;;;;5094019;28;20213;-80
2021/05/15 06:41:27;;;;;;;24.07;17.87;;;16.90;99.90;;;;;;5077026;28;20613;-82
2021/05/15 06:43:54;;;;;;;21.60;17.10;;;17.10;99.90;;;;;;5073429;28;20218;-82
2021/05/15 06:46:21;;;;;;;23.03;17.20;;;17.50;99.90;;;;;;5081085;28;20199;-80
2021/05/15 06:48:47;;;;;;;21.70;16.90;;;17.60;99.90;;;;;;5093110;28;20195;-80
2021/05/15 06:51:14;;;;;;;21.67;16.07;;;17.30;99.90;;;;;;5093461;28;20281;-81
2021/05/15 06:53:40;;;;;;;17.80;14.50;;;17.20;99.90;;;;;;5092124;28;20199;-80
2021/05/15 06:56:06;;;;;;;19.67;13.50;;;16.80;99.90;;;;;;5092518;28;20324;-79
2021/05/15 06:58:33;;;;;;;18.80;13.27;;;16.80;99.90;;;;;;5094118;28;20617;-83
2021/05/15 07:00:59;;;;;;;15.00;11.10;;;16.50;99.90;;;;;;5092889;28;20202;-80
2021/05/15 07:03:28;;;;;;;15.47;10.53;;;16.20;99.90;;;;;;5092970;28;20576;-83
2021/05/15 07:05:55;;;;;;;13.73;9.87;;;16.00;99.90;;;;;;5093888;28;20263;-81
2021/05/15 07:08:21;;;;;;;13.37;9.37;;;16.00;99.90;;;;;;5092941;28;20221;-80
2021/05/15 07:10:48;;;;;;;14.20;9.60;;;15.90;99.90;;;;;;5093166;28;20238;-79
2021/05/15 07:13:14;;;;;;;11.53;8.60;;;15.90;99.90;;;;;;5092527;28;20289;-79
2021/05/15 07:15:41;;;;;;;14.30;10.13;;;15.70;99.90;;;;;;5093498;28;20254;-82
2021/05/15 07:18:07;;;;;;;15.80;9.20;;;15.60;99.90;;;;;;5093066;28;20195;-80
2021/05/15 07:20:34;;;;;;;15.40;9.30;;;15.30;99.90;;;;;;5093252;28;20191;-80
2021/05/15 07:23:00;;;;;;;15.10;9.93;;;14.80;99.90;;;;;;5092872;28;20205;-80
2021/05/15 07:25:27;;;;;;;17.13;10.00;;;14.20;99.90;;;;;;5090259;28;20220;-79
2021/05/15 07:27:53;;;;;;;16.87;10.03;;;13.80;99.90;;;;;;5092535;28;20195;-81
2021/05/15 07:30:20;;;;;;;18.60;11.17;;;13.50;99.90;;;;;;5092823;28;20201;-79
2021/05/15 07:32:48;;;;;;;19.93;12.40;;;13.30;99.90;;;;;;5090276;28;20256;-81
2021/05/15 07:35:15;;;;;;;21.60;13.40;;;13.20;99.90;;;;;;5092606;28;20222;-79
2021/05/15 07:37:42;;;;;;;20.87;12.60;;;13.20;99.90;;;;;;5092914;28;20282;-82
2021/05/15 07:40:09;;;;;;;19.73;13.30;;;13.10;99.90;;;;;;5090978;28;20604;-81
2021/05/15 07:42:36;;;;;;;19.63;12.80;;;13.10;99.90;;;;;;5092834;28;20199;-80
2021/05/15 07:45:02;;;;;;;21.33;12.53;;;13.10;99.90;;;;;;5093291;28;20583;-80
2021/05/15 07:47:29;;;;;;;20.37;13.47;;;13.20;99.90;;;;;;5092431;28;20537;-81
2021/05/15 07:49:56;;;;;;;18.50;12.43;;;13.30;99.90;;;;;;5092483;28;20195;-79
2021/05/15 07:52:23;;;;;;;19.30;11.93;;;13.20;99.90;;;;;;5092312;28;20187;-81
2021/05/15 07:54:52;;;;;;;16.73;11.27;;;13.10;99.90;;;;;;5092903;28;20214;-80
2021/05/15 07:57:18;;;;;;;19.23;11.63;;;13.00;99.90;;;;;;5096901;28;20645;-81
2021/05/15 07:59:45;;;;;;;24.47;12.17;;;12.90;99.90;;;;;;5096603;28;20298;-80
2021/05/15 08:02:12;;;;;;;17.77;11.73;;;12.90;99.90;;;;;;5096555;28;20206;-80
2021/05/15 08:04:39;;;;;;;24.10;11.40;;;12.90;99.90;;;;;;5096444;28;20289;-82
2021/05/15 08:07:05;;;;;;;19.30;11.63;;;13.00;99.90;;;;;;5096140;28;20284;-83
2021/05/15 08:09:32;;;;;;;18.43;11.50;;;13.20;99.90;;;;;;5096642;28;20202;-80
2021/05/15 08:11:59;;;;;;;20.33;11.37;;;13.40;99.90;;;;;;5096205;28;20704;-80
2021/05/15 08:14:26;;;;;;;19.63;10.80;;;13.50;99.90;;;;;;5096265;28;20714;-81
2021/05/15 08:16:53;;;;;;;16.83;10.67;;;14.10;99.90;;;;;;5096198;28;20213;-79
2021/05/15 08:19:20;;;;;;;13.30;8.93;;;14.60;99.90;;;;;;5096360;28;20203;-80
2021/05/15 08:21:46;;;;;;;12.33;9.20;;;15.40;99.90;;;;;;5095806;28;20191;-80
2021/05/15 08:24:13;;;;;;;10.87;7.57;;;15.70;99.90;;;;;;5096262;28;20277;-79
2021/05/15 08:26:40;;;;;;;12.77;8.40;;;15.50;99.90;;;;;;5096164;28;20203;-79
2021/05/15 08:29:09;;;;;;;11.73;7.83;;;15.40;99.90;;;;;;5096082;28;20195;-83
2021/05/15 08:31:36;;;;;;;11.13;7.53;;;15.50;99.90;;;;;;5095726;28;20194;-80
2021/05/15 08:34:02;;;;;;;11.00;7.57;;;15.50;99.90;;;;;;5095557;28;20696;-81
2021/05/15 08:36:29;;;;;;;12.07;7.63;;;15.40;99.90;;;;;;5095835;28;20590;-79
2021/05/15 08:38:56;;;;;;;12.27;8.07;;;15.40;99.90;;;;;;5095444;28;20676;-80
2021/05/15 08:41:22;;;;;;;11.50;7.77;;;15.50;99.90;;;;;;5094890;28;20583;-82
2021/05/15 08:43:49;;;;;;;14.97;7.27;;;15.70;99.90;;;;;;5093875;28;20195;-82
2021/05/15 08:46:17;;;;;;;11.60;7.50;;;15.70;99.90;;;;;;5093898;28;20281;-82
2021/05/15 08:48:44;;;;;;;10.83;7.40;;;15.70;99.90;;;;;;5089745;28;20197;-81
2021/05/15 08:51:11;;;;;;;11.27;7.07;;;15.70;99.90;;;;;;5094983;28;20314;-82
2021/05/15 08:53:39;;;;;;;9.70;7.00;;;15.80;99.90;;;;;;5093116;28;20191;-81
2021/05/15 08:56:08;;;;;;;8.67;5.70;;;16.20;99.90;;;;;;5092196;28;20271;-82
2021/05/15 08:58:36;;;;;;;12.83;5.60;;;16.60;99.90;;;;;;5094676;28;20222;-82
2021/05/15 09:01:04;;;;;;;10.20;6.23;;;16.80;99.90;;;;;;5095764;28;20294;-81
2021/05/15 09:03:32;;;;;;;12.10;5.67;;;17.00;99.90;;;;;;5095189;28;20653;-81
2021/05/15 09:05:58;;;;;;;8.67;5.30;;;17.20;99.90;;;;;;5094677;28;20277;-81
2021/05/15 09:08:25;;;;;;;8.47;4.40;;;16.90;99.90;;;;;;5094347;28;20222;-80
2021/05/15 09:10:52;;;;;;;7.93;4.70;;;16.90;99.90;;;;;;5095297;28;20609;-80
2021/05/15 09:13:19;;;;;;;8.37;4.63;;;17.10;99.90;;;;;;5095118;28;20629;-82
2021/05/15 09:15:47;;;;;;;7.20;4.60;;;17.10;99.90;;;;;;5094965;28;20744;-82
2021/05/15 09:18:15;;;;;;;7.30;4.47;;;17.50;99.90;;;;;;5095177;28;20277;-80
2021/05/15 09:20:43;;;;;;;8.10;3.83;;;17.80;99.90;;;;;;5094838;28;20281;-79
2021/05/15 09:23:11;;;;;;;8.87;4.20;;;17.80;99.90;;;;;;5094675;28;20195;-79
2021/05/15 09:25:38;;;;;;;7.20;3.80;;;18.20;99.90;;;;;;5094128;28;20665;-80
2021/05/15 09:28:05;;;;;;;7.50;4.00;;;18.70;99.90;;;;;;5093931;28;20222;-79
2021/05/15 09:30:32;;;;;;;8.37;4.03;;;19.10;99.90;;;;;;5092680;28;20719;-80
2021/05/15 09:33:09;;;;;;;9.10;4.27;;;19.30;99.90;;;;;;5075758;28;20240;-79
2021/05/15 09:35:35;;;;;;;6.93;3.40;;;19.60;99.90;;;;;;5090777;28;20762;-80
2021/05/15 09:38:03;;;;;;;8.30;3.00;;;19.90;99.90;;;;;;5091778;28;20214;-81
2021/05/15 09:40:29;;;;;;;6.47;3.40;;;20.00;99.90;;;;;;5092603;28;20229;-84
2021/05/15 09:42:57;;;;;;;5.63;3.40;;;19.90;99.90;;;;;;5090257;28;20788;-82
2021/05/15 09:45:25;;;;;;;6.90;3.20;;;19.90;99.90;;;;;;5091549;28;20607;-81
2021/05/15 09:47:53;;;;;;;5.53;3.37;;;19.70;99.90;;;;;;5090514;28;20309;-80
2021/05/15 09:50:21;;;;;;;4.73;3.27;;;19.30;99.90;;;;;;5092337;28;20195;-81
2021/05/15 09:52:47;;;;;;;5.57;3.03;;;19.00;99.90;;;;;;5088468;28;20191;-80
2021/05/15 09:55:16;;;;;;;8.43;3.50;;;18.50;99.90;;;;;;5093066;28;20320;-80
2021/05/15 09:57:42;;;;;;;6.80;2.60;;;17.80;99.90;;;;;;5082131;28;20195;-80
2021/05/15 10:00:13;;;;;;;8.73;3.00;;;17.40;99.90;;;;;;5092909;28;20225;-81
2021/05/15 10:02:40;;;;;;;6.10;2.83;;;17.20;99.90;;;;;;5092608;28;20195;-80
2021/05/15 10:05:10;;;;;;;6.40;2.97;;;17.10;99.90;;;;;;5093144;28;20203;-82
2021/05/15 10:07:38;;;;;;;7.23;2.50;;;16.90;99.90;;;;;;5092655;28;20291;-82
2021/05/15 10:10:08;;;;;;;5.77;2.03;;;16.30;99.90;;;;;;5084116;28;20338;-81
2021/05/15 10:12:36;;;;;;;5.83;2.27;;;15.50;99.90;;;;;;5089290;28;20222;-83
2021/05/15 10:15:04;;;;;;;8.17;3.27;;;14.90;99.90;;;;;;5086562;28;20241;-84
2021/05/15 10:17:33;;;;;;;7.17;2.70;;;14.50;99.90;;;;;;5087244;28;20237;-82
2021/05/15 10:20:07;;;;;;;8.23;2.97;;;14.20;99.90;;;;;;5085621;28;20291;-83
2021/05/15 10:22:38;;;;;;;8.87;3.17;;;14.10;99.90;;;;;;5087829;28;20219;-83
2021/05/15 10:25:10;;;;;;;8.33;3.23;;;14.00;99.90;;;;;;5090350;28;20620;-82
2021/05/15 10:27:38;;;;;;;6.70;3.33;;;13.80;99.90;;;;;;5090776;28;20218;-79
2021/05/15 10:30:14;;;;;;;8.97;3.80;;;13.70;99.90;;;;;;5091981;28;20281;-79
2021/05/15 10:32:54;;;;;;;7.03;3.10;;;13.60;99.90;;;;;;5089092;28;20222;-79
2021/05/15 10:35:28;;;;;;;10.70;4.03;;;13.40;99.90;;;;;;5088679;28;20313;-79
2021/05/15 10:38:05;;;;;;;11.17;4.07;;;13.40;99.90;;;;;;5088071;28;20610;-79
2021/05/15 10:40:43;;;;;;;10.90;3.87;;;13.60;99.90;;;;;;5087317;28;20206;-79
2021/05/15 10:43:11;;;;;;;8.90;3.97;;;14.10;99.90;;;;;;5091006;28;20221;-79
2021/05/15 10:45:38;;;;;;;7.37;3.13;;;14.50;99.90;;;;;;5089964;28;20206;-84
2021/05/15 10:48:13;;;;;;;6.93;3.00;;;14.90;99.90;;;;;;5086627;28;20207;-79
2021/05/15 10:50:51;;;;;;;4.17;2.23;;;15.30;99.90;;;;;;5080946;28;20209;-75
2021/05/15 10:53:23;;;;;;;8.10;3.20;;;15.70;99.90;;;;;;5074415;28;20195;-76
2021/05/15 10:56:09;;;;;;;5.40;2.63;;;16.30;99.90;;;;;;5082942;28;20223;-76
2021/05/15 10:58:41;;;;;;;3.63;2.10;;;16.80;99.90;;;;;;5086776;28;20199;-77
2021/05/15 11:01:09;;;;;;;7.17;2.27;;;17.40;99.90;;;;;;5082768;28;20252;-78
2021/05/15 11:03:36;;;;;;;7.30;2.73;;;17.20;99.90;;;;;;5091137;28;20206;-76
2021/05/15 11:06:13;;;;;;;5.70;2.20;;;17.00;99.90;;;;;;5089725;28;20199;-77
2021/05/15 11:08:41;;;;;;;4.57;2.33;;;16.40;99.90;;;;;;5086882;28;20195;-77
2021/05/15 11:11:09;;;;;;;8.97;2.60;;;16.00;99.90;;;;;;5081480;28;20226;-78
2021/05/15 11:13:46;;;;;;;4.13;2.10;;;15.50;99.90;;;;;;5077141;28;20234;-76
2021/05/15 11:16:14;;;;;;;5.40;2.03;;;15.10;99.90;;;;;;5090946;28;20217;-76
2021/05/15 11:18:40;;;;;;;5.17;1.50;;;15.10;99.90;;;;;;5090120;28;20677;-76
2021/05/15 11:21:07;;;;;;;3.97;1.07;;;14.90;99.90;;;;;;5090468;28;20549;-77
2021/05/15 11:23:37;;;;;;;2.10;1.03;;;14.70;99.90;;;;;;5090436;28;20661;-76
2021/05/15 11:26:06;;;;;;;1.90;0.90;;;14.50;99.90;;;;;;5089322;28;20207;-77
2021/05/15 11:28:33;;;;;;;4.33;1.33;;;14.40;99.90;;;;;;5084494;28;20222;-79
2021/05/15 11:31:08;;;;;;;4.47;1.20;;;14.20;99.90;;;;;;5095068;28;20263;-75
2021/05/15 11:33:34;;;;;;;4.63;1.37;;;14.00;99.90;;;;;;5095733;28;20203;-76
2021/05/15 11:36:01;;;;;;;6.47;1.40;;;13.90;99.90;;;;;;5094212;28;20211;-77
2021/05/15 11:38:28;;;;;;;4.80;1.40;;;13.70;99.90;;;;;;5092369;28;20286;-76
2021/05/15 11:40:57;;;;;;;4.57;1.27;;;13.50;99.90;;;;;;5083838;28;20744;-76
2021/05/15 11:43:25;;;;;;;2.20;1.20;;;13.60;99.90;;;;;;5093324;28;20198;-79
2021/05/15 11:45:52;;;;;;;2.90;1.90;;;13.40;99.90;;;;;;5096288;28;20230;-77
2021/05/15 11:48:21;;;;;;;7.17;1.50;;;13.40;99.90;;;;;;5081429;28;20717;-78
2021/05/15 11:51:06;;;;;;;4.67;1.43;;;13.30;99.90;;;;;;5095711;28;20209;-76
2021/05/15 11:53:34;;;;;;;5.63;1.50;;;13.20;99.90;;;;;;5090621;28;20660;-80
2021/05/15 11:56:00;;;;;;;5.50;1.50;;;13.30;99.90;;;;;;5081316;28;20361;-80
2021/05/15 11:58:28;;;;;;;5.70;1.60;;;13.20;99.90;;;;;;5087288;28;20741;-82
2021/05/15 12:00:54;;;;;;;6.53;1.60;;;13.20;99.90;;;;;;5079552;28;20226;-81
2021/05/15 12:03:22;;;;;;;5.93;1.83;;;13.30;99.90;;;;;;5093999;28;20209;-80
2021/05/15 12:05:50;;;;;;;5.10;1.50;;;13.50;99.90;;;;;;5094028;28;20331;-79
2021/05/15 12:08:18;;;;;;;3.73;1.90;;;13.60;99.90;;;;;;5092485;28;20234;-82
2021/05/15 12:10:46;;;;;;;5.30;1.80;;;13.70;99.90;;;;;;5090497;28;20206;-78
2021/05/15 12:13:14;;;;;;;6.47;2.00;;;13.80;99.90;;;;;;5089302;28;20203;-79
2021/05/15 12:15:46;;;;;;;3.93;1.90;;;13.90;99.90;;;;;;5085479;28;20296;-79
2021/05/15 12:18:14;;;;;;;7.23;2.17;;;14.00;99.90;;;;;;5095459;28;20653;-79
2021/05/15 12:20:42;;;;;;;5.00;2.20;;;14.00;99.90;;;;;;5084544;28;20230;-81
2021/05/15 12:23:11;;;;;;;4.40;2.20;;;13.90;99.90;;;;;;5081922;28;20268;-79
2021/05/15 12:25:39;;;;;;;7.63;2.57;;;13.70;99.90;;;;;;5091261;28;20231;-79
2021/05/15 12:28:20;;;;;;;8.73;2.33;;;13.40;99.90;;;;;;5092836;28;20241;-81
2021/05/15 12:30:47;;;;;;;5.43;2.07;;;12.90;99.90;;;;;;5081072;28;20183;-79
2021/05/15 12:33:18;;;;;;;4.83;2.23;;;12.60;99.90;;;;;;5086686;28;20283;-79
2021/05/15 12:36:00;;;;;;;7.90;2.67;;;12.50;99.90;;;;;;5077565;28;20249;-81